Terminal Aerodrome Forecast
Issued by NWS Spokane, WA

Home | Current Version | Previous Version | Text Only | Print | Product List | Glossary On
Versions: 1 2 3 4 5 6 7 8 9 10 11 12 13
000
FTUS46 KOTX 301131
TAFLWS
TAF
KLWS 301131Z 3012/0112 00000KT P6SM VCSH SCT008 OVC015
     FM301600 VRB04KT P6SM SCT006 OVC012
     FM301730 31007KT P6SM BKN025 BKN050
     FM302000 30008KT P6SM SCT040 BKN060
     FM010400 19003KT P6SM FEW100=

USA.gov is the U.S. government's official web portal to all federal, state and local government web resources and services.